Time;durP1;ratioP1;P1;durP2;ratioP2;P2;SDS_P1;SDS_P2;PMS_P1;PMS_P2;Temp;Humidity;BMP_temperature;BMP_pressure;BME280_temperature;BME280_humidity;BME280_pressure;Samples;Min_cycle;Max_cycle;Signal;HPM_P1;HPM_P2
2024/01/27 00:01:22;;;;;;;22.90;12.50;;;;;;;-147.86;100.00;29907.42;105031;1269;72665;-59
2024/01/27 00:03:51;;;;;;;24.20;12.60;;;;;;;-147.86;100.00;30548.25;105073;1266;227939;-59
2024/01/27 00:06:18;;;;;;;23.90;13.60;;;;;;;-147.86;100.00;31183.33;105227;1266;59368;-59
2024/01/27 00:08:46;;;;;;;19.90;12.60;;;;;;;-147.86;100.00;31359.06;105220;1266;70980;-59
2024/01/27 00:11:15;;;;;;;19.10;12.50;;;;;;;-147.86;100.00;31305.53;105268;1263;64343;-59
2024/01/27 00:13:42;;;;;;;21.50;14.10;;;;;;;-147.86;100.00;32452.26;105691;1260;71532;-60
2024/01/27 00:16:11;;;;;;;23.00;13.40;;;;;;;-147.86;100.00;33657.92;105693;1257;61748;-57
2024/01/27 00:18:38;;;;;;;23.30;13.80;;;;;;;-147.86;100.00;34235.71;105669;1255;59649;-59
2024/01/27 00:21:07;;;;;;;23.10;13.40;;;;;;;-147.86;100.00;35361.41;105669;1254;71476;-59
2024/01/27 00:23:35;;;;;;;24.30;13.90;;;;;;;-147.86;100.00;35528.71;105700;1254;64213;-60
2024/01/27 00:26:04;;;;;;;25.10;14.30;;;;;;;-147.86;100.00;35919.90;105652;1260;71442;-59
2024/01/27 00:28:32;;;;;;;24.90;15.40;;;;;;;-147.86;100.00;35540.87;105721;1257;59700;-60
2024/01/27 00:31:00;;;;;;;25.30;14.60;;;;;;;-147.86;100.00;35538.83;105712;1260;59560;-59
2024/01/27 00:33:27;;;;;;;23.00;14.40;;;;;;;-147.86;100.00;35975.79;105622;1256;72987;-61
2024/01/27 00:35:56;;;;;;;20.30;14.00;;;;;;;-147.86;100.00;36206.41;105676;1255;63205;-60
2024/01/27 00:38:24;;;;;;;21.30;13.50;;;;;;;-147.86;100.00;36883.07;105673;1260;72594;-58
2024/01/27 00:40:53;;;;;;;21.70;13.60;;;;;;;-147.86;100.00;37268.17;105649;1255;59653;-60
2024/01/27 00:43:20;;;;;;;31.90;16.00;;;;;;;-147.86;100.00;37602.49;105711;1255;60051;-58
2024/01/27 00:45:48;;;;;;;19.80;13.50;;;;;;;-147.86;100.00;37695.15;105643;1259;71350;-59
2024/01/27 00:48:15;;;;;;;23.20;13.30;;;;;;;-147.86;100.00;38176.52;105662;1259;64489;-59
2024/01/27 00:50:43;;;;;;;19.80;11.70;;;;;;;-147.86;100.00;38579.36;105662;1254;71456;-59
2024/01/27 00:53:11;;;;;;;17.60;12.30;;;;;;;-147.86;100.00;39008.45;105681;1255;59719;-59
2024/01/27 00:55:40;;;;;;;22.50;13.90;;;;;;;-147.86;100.00;39116.39;105707;1260;59721;-58
2024/01/27 00:58:07;;;;;;;18.90;12.50;;;;;;;-147.86;100.00;39924.24;105600;1259;70775;-59
2024/01/27 01:00:35;;;;;;;20.60;12.50;;;;;;;-147.86;100.00;40182.86;105623;1257;63228;-58
2024/01/27 01:03:03;;;;;;;20.60;13.40;;;;;;;-147.86;100.00;40472.80;105610;1260;71454;-55
2024/01/27 01:05:30;;;;;;;18.60;12.60;;;;;;;-147.86;100.00;40596.85;105594;1260;60885;-59
2024/01/27 01:07:58;;;;;;;17.20;13.10;;;;;;;-147.86;100.00;40678.25;105637;1259;59635;-59
2024/01/27 01:10:26;;;;;;;20.30;13.30;;;;;;;-147.86;100.00;40933.79;105630;1254;71642;-58
2024/01/27 01:12:54;;;;;;;21.30;13.40;;;;;;;-147.86;100.00;41669.97;105656;1260;63134;-57
2024/01/27 01:15:22;;;;;;;20.50;13.50;;;;;;;-147.86;100.00;42107.64;105610;1259;71389;-58
2024/01/27 01:17:50;;;;;;;17.10;12.00;;;;;;;-147.86;100.00;41753.36;105701;1258;59759;-58
2024/01/27 01:20:18;;;;;;;15.20;11.70;;;;;;;-147.86;100.00;42718.74;105668;1260;59713;-58
2024/01/27 01:22:45;;;;;;;15.50;11.80;;;;;;;-147.86;100.00;43187.44;105660;1256;72990;-59
2024/01/27 01:25:13;;;;;;;19.20;13.00;;;;;;;-147.86;100.00;43283.75;105651;1257;64452;-58
2024/01/27 01:27:41;;;;;;;15.80;11.30;;;;;;;-147.86;100.00;44044.68;105600;1258;72609;-59
2024/01/27 01:30:09;;;;;;;18.60;11.60;;;;;;;-147.86;100.00;43998.07;105637;1257;59839;-59
2024/01/27 01:32:37;;;;;;;16.20;11.20;;;;;;;-147.86;100.00;44101.07;105584;1263;59769;-58
2024/01/27 01:35:05;;;;;;;14.80;10.90;;;;;;;-147.86;100.00;44226.81;105605;1259;70780;-58
2024/01/27 01:37:33;;;;;;;14.90;11.50;;;;;;;-147.86;100.00;43973.41;105686;1260;64451;-59
2024/01/27 01:40:01;;;;;;;13.70;10.90;;;;;;;-147.86;100.00;43721.21;105588;1257;71456;-59
2024/01/27 01:42:29;;;;;;;15.70;11.30;;;;;;;-147.86;100.00;43263.80;105673;1260;59726;-60
2024/01/27 01:48:12;;;;;;;15.80;11.30;;;;;;;-147.86;100.00;54649.70;102662;1292;600265;-59
2024/01/27 01:50:40;;;;;;;12.50;10.20;;;;;;;-147.86;100.00;44346.66;104836;1266;59245;-58
2024/01/27 01:53:07;;;;;;;13.50;10.90;;;;;;;-147.86;100.00;44233.85;104759;1274;59288;-59
2024/01/27 01:55:35;;;;;;;16.10;11.40;;;;;;;-147.86;100.00;44141.02;104868;1272;70693;-58
2024/01/27 01:58:04;;;;;;;14.30;10.60;;;;;;;-147.86;100.00;44437.14;104851;1265;63713;-59
2024/01/27 02:00:32;;;;;;;15.40;10.60;;;;;;;-147.86;100.00;44877.82;104857;1269;72634;-57
2024/01/27 02:03:00;;;;;;;17.30;11.50;;;;;;;-147.86;100.00;45079.19;105051;1263;210408;-59
2024/01/27 02:05:28;;;;;;;15.20;11.10;;;;;;;-147.86;100.00;45172.43;105220;1267;59379;-59
2024/01/27 02:07:59;;;;;;;13.70;10.20;;;;;;;-147.86;100.00;45365.18;105191;1263;71081;-59
2024/01/27 02:10:30;;;;;;;18.70;11.50;;;;;;;-147.86;100.00;45872.18;105180;1263;63236;-59
2024/01/27 02:12:57;;;;;;;18.50;10.90;;;;;;;-147.86;100.00;45960.74;105196;1269;72653;-58
2024/01/27 02:15:25;;;;;;;16.30;10.80;;;;;;;-147.86;100.00;46235.44;105175;1267;59669;-59
2024/01/27 02:17:53;;;;;;;21.90;11.30;;;;;;;-147.86;100.00;46978.51;105155;1268;59556;-58
2024/01/27 02:20:21;;;;;;;17.70;12.10;;;;;;;-147.86;100.00;47000.85;105068;1269;72062;-57
2024/01/27 02:22:49;;;;;;;19.70;12.10;;;;;;;-147.86;100.00;47332.06;104918;1264;64494;-59
2024/01/27 02:25:17;;;;;;;23.30;13.20;;;;;;;-147.86;100.00;48148.26;105090;1268;70935;-58
2024/01/27 02:27:44;;;;;;;20.70;12.20;;;;;;;-147.86;100.00;48526.62;105174;1268;59857;-58
2024/01/27 02:30:12;;;;;;;23.10;13.50;;;;;;;-147.86;100.00;48741.89;105601;1257;59667;-59
2024/01/27 02:32:40;;;;;;;21.40;12.20;;;;;;;-147.86;100.00;49246.59;105578;1257;71806;-58
2024/01/27 02:35:08;;;;;;;25.00;13.40;;;;;;;-147.86;100.00;49080.71;105558;1260;63121;-58
2024/01/27 02:37:36;;;;;;;23.60;13.40;;;;;;;-147.86;100.00;49338.37;105647;1260;72641;-59
2024/01/27 02:40:05;;;;;;;24.50;13.60;;;;;;;-147.86;100.00;49074.83;105609;1257;59621;-59
2024/01/27 02:42:33;;;;;;;26.90;14.50;;;;;;;-147.86;100.00;49014.45;105646;1260;59711;-56
2024/01/27 02:45:02;;;;;;;26.40;13.90;;;;;;;-147.86;100.00;48417.62;105581;1260;71640;-55
2024/01/27 02:47:30;;;;;;;26.20;14.50;;;;;;;-147.86;100.00;48647.79;105763;1258;64363;-58
2024/01/27 02:49:58;;;;;;;25.50;14.00;;;;;;;-147.86;100.00;49000.71;105723;1257;72657;-59
2024/01/27 02:52:26;;;;;;;25.70;14.40;;;;;;;-147.86;100.00;48822.29;105757;1257;60842;-60
2024/01/27 02:54:55;;;;;;;30.80;15.00;;;;;;;-147.86;100.00;48875.22;105767;1257;59999;-58
2024/01/27 02:57:22;;;;;;;28.80;15.70;;;;;;;-147.86;100.00;48714.45;105757;1258;74059;-59
2024/01/27 03:01:21;;;;;;;31.50;15.90;;;;;;;-147.86;100.00;71178.77;102601;1291;600693;-57
2024/01/27 03:03:49;;;;;;;30.00;16.50;;;;;;;-147.86;100.00;57365.52;104795;1266;59591;-58
2024/01/27 03:06:17;;;;;;;45.10;16.40;;;;;;;-147.86;100.00;55388.93;104755;1271;59343;-59
2024/01/27 03:08:45;;;;;;;27.20;16.00;;;;;;;-147.86;100.00;53943.34;104865;1265;70719;-59
2024/01/27 03:11:13;;;;;;;31.90;17.20;;;;;;;-147.86;100.00;53063.53;104805;1270;64408;-59
2024/01/27 03:13:44;;;;;;;32.80;16.30;;;;;;;-147.86;100.00;52331.48;104785;1266;70691;-58
2024/01/27 03:16:13;;;;;;;35.30;16.30;;;;;;;-147.86;100.00;52132.10;104921;1264;207449;-59
2024/01/27 03:18:41;;;;;;;34.20;16.80;;;;;;;-147.86;100.00;52086.58;105091;1268;60068;-59
2024/01/27 03:21:09;;;;;;;30.30;16.30;;;;;;;-147.86;100.00;51873.48;104994;1269;70948;-56
2024/01/27 03:23:37;;;;;;;33.40;16.50;;;;;;;-147.86;100.00;52148.98;104984;1264;62575;-59
2024/01/27 03:26:05;;;;;;;31.30;16.80;;;;;;;-147.86;100.00;52177.23;105033;1266;72650;-58
2024/01/27 03:28:34;;;;;;;33.50;17.60;;;;;;;-147.86;100.00;51754.18;104994;1270;59759;-59
2024/01/27 03:31:01;;;;;;;36.20;18.40;;;;;;;-147.86;100.00;51623.51;104978;1269;59572;-60
2024/01/27 03:33:30;;;;;;;35.60;18.90;;;;;;;-147.86;100.00;51491.26;104945;1266;70835;-59
2024/01/27 03:35:58;;;;;;;33.60;18.30;;;;;;;-147.86;100.00;51641.55;104975;1264;64937;-59
2024/01/27 03:38:26;;;;;;;33.80;16.60;;;;;;;-147.86;100.00;51560.72;104970;1266;71662;-59
2024/01/27 03:40:54;;;;;;;31.80;17.40;;;;;;;-147.86;100.00;51928.42;105068;1264;59651;-60
2024/01/27 03:43:23;;;;;;;32.30;17.50;;;;;;;-147.86;100.00;52001.02;104953;1266;60144;-58
2024/01/27 03:45:50;;;;;;;32.70;17.00;;;;;;;-147.86;100.00;52373.48;104902;1266;71618;-60
2024/01/27 03:48:18;;;;;;;30.90;15.70;;;;;;;-147.86;100.00;52617.61;104869;1266;63212;-60
2024/01/27 03:50:46;;;;;;;33.70;17.20;;;;;;;-147.86;100.00;52545.78;104880;1270;71444;-60
2024/01/27 03:53:14;;;;;;;32.70;17.30;;;;;;;-147.86;100.00;52880.99;104805;1266;59753;-60
2024/01/27 03:55:42;;;;;;;30.90;17.10;;;;;;;-147.86;100.00;53324.59;104834;1266;59672;-60
2024/01/27 03:58:10;;;;;;;34.10;17.40;;;;;;;-147.86;100.00;53613.54;105185;1262;71804;-59
2024/01/27 04:00:37;;;;;;;31.40;16.40;;;;;;;-147.86;100.00;53748.59;105189;1262;63623;-59
2024/01/27 04:03:08;;;;;;;31.20;16.70;;;;;;;-147.86;100.00;54008.13;105206;1266;71436;-58
2024/01/27 04:05:36;;;;;;;30.20;16.50;;;;;;;-147.86;100.00;54139.27;105245;1267;60836;-61
2024/01/27 04:08:05;;;;;;;33.50;17.10;;;;;;;-147.86;100.00;54441.64;105199;1263;60012;-59
2024/01/27 04:10:33;;;;;;;35.00;17.00;;;;;;;-147.86;100.00;54844.95;105234;1262;71818;-57
2024/01/27 04:13:01;;;;;;;39.40;16.80;;;;;;;-147.86;100.00;55027.97;105178;1262;64436;-57
2024/01/27 04:15:29;;;;;;;34.00;17.30;;;;;;;-147.86;100.00;55463.16;105179;1262;71426;-58
2024/01/27 04:17:57;;;;;;;33.30;17.10;;;;;;;-147.86;100.00;55845.76;105185;1264;59773;-59
2024/01/27 04:20:24;;;;;;;28.50;16.30;;;;;;;-147.86;100.00;56468.05;105189;1266;59649;-60
2024/01/27 04:22:52;;;;;;;31.90;15.80;;;;;;;-147.86;100.00;56889.65;105219;1262;71818;-59
2024/01/27 04:25:20;;;;;;;27.00;14.50;;;;;;;-147.86;100.00;56948.19;105178;1262;64669;-59
2024/01/27 04:27:48;;;;;;;30.20;15.70;;;;;;;-147.86;100.00;57208.32;105159;1263;71396;-60
2024/01/27 04:30:15;;;;;;;26.00;13.70;;;;;;;-147.86;100.00;57584.03;105130;1262;59640;-60
2024/01/27 04:32:43;;;;;;;23.50;12.70;;;;;;;-147.86;100.00;58195.98;105237;1266;59588;-57
2024/01/27 04:35:12;;;;;;;22.80;11.80;;;;;;;-147.86;100.00;58168.06;105237;1262;71890;-59
2024/01/27 04:37:39;;;;;;;22.50;12.20;;;;;;;-147.86;100.00;58401.16;105218;1262;63357;-58
2024/01/27 04:40:08;;;;;;;21.50;11.00;;;;;;;-147.86;100.00;58543.06;105173;1263;72178;-60
2024/01/27 04:42:37;;;;;;;16.10;9.90;;;;;;;-147.86;100.00;58537.17;105661;1258;59594;-59
2024/01/27 04:45:06;;;;;;;18.40;9.70;;;;;;;-147.86;100.00;58718.79;105665;1258;60020;-57
2024/01/27 04:47:34;;;;;;;17.70;9.60;;;;;;;-147.86;100.00;58427.89;105705;1255;72975;-61
2024/01/27 04:50:01;;;;;;;14.40;9.40;;;;;;;-147.86;100.00;58701.49;105642;1253;63215;-60
2024/01/27 04:52:29;;;;;;;12.50;8.10;;;;;;;-147.86;100.00;59009.70;105666;1255;72738;-60
2024/01/27 04:54:58;;;;;;;13.90;8.60;;;;;;;-147.86;100.00;58957.41;105626;1253;60150;-56
2024/01/27 04:57:25;;;;;;;13.50;8.50;;;;;;;-147.86;100.00;59221.23;105730;1258;59664;-60
2024/01/27 04:59:54;;;;;;;15.20;9.10;;;;;;;-147.86;100.00;59564.86;105700;1254;71949;-60
2024/01/27 05:02:24;;;;;;;12.80;8.70;;;;;;;-147.86;100.00;59999.77;105637;1253;63093;-60
2024/01/27 05:04:52;;;;;;;12.30;8.70;;;;;;;-147.86;100.00;59983.64;105705;1253;71695;-59
2024/01/27 05:07:21;;;;;;;12.80;8.30;;;;;;;-147.86;100.00;60277.01;105637;1258;60814;-57
2024/01/27 05:47:39;;;;;;;11.80;8.60;;;;;;;-147.86;100.00;73210.69;102682;1292;599597;-60
2024/01/27 05:50:09;;;;;;;17.40;10.60;;;;;;;-147.86;100.00;64429.36;105085;1265;59427;-58
2024/01/27 05:52:36;;;;;;;13.90;9.80;;;;;;;-147.86;100.00;64906.52;104872;1265;60037;-58
2024/01/27 05:55:06;;;;;;;14.90;10.80;;;;;;;-147.86;100.00;65349.10;105087;1263;70950;-60
2024/01/27 05:57:34;;;;;;;15.10;9.30;;;;;;;-147.86;100.00;65553.48;105077;1264;63223;-60
2024/01/27 06:00:02;;;;;;;16.10;9.70;;;;;;;-147.86;100.00;65546.77;105052;1269;71396;-57
2024/01/27 06:02:31;;;;;;;17.30;11.00;;;;;;;-147.86;100.00;65738.16;105079;1264;267614;-58
2024/01/27 06:04:58;;;;;;;15.80;10.10;;;;;;;-147.86;100.00;66033.14;105171;1266;59951;-60
2024/01/27 06:07:26;;;;;;;13.10;9.90;;;;;;;-147.86;100.00;66307.27;105200;1264;70943;-57
2024/01/27 06:09:54;;;;;;;15.10;10.20;;;;;;;-147.86;100.00;66441.96;105195;1263;63144;-57
2024/01/27 06:12:22;;;;;;;16.50;10.70;;;;;;;-147.86;100.00;66777.57;105210;1266;71424;-58
2024/01/27 06:14:49;;;;;;;16.20;10.20;;;;;;;-147.86;100.00;66805.52;105185;1264;59724;-59
2024/01/27 06:17:17;;;;;;;18.20;11.00;;;;;;;-147.86;100.00;67140.77;105647;1257;59654;-58
2024/01/27 06:19:45;;;;;;;20.90;10.50;;;;;;;-147.86;100.00;67415.75;105698;1254;71826;-60
2024/01/27 06:49:11;;;;;;;14.90;10.10;;;;;;;-147.86;100.00;76526.77;102806;1295;601162;-57
2024/01/27 06:51:39;;;;;;;16.80;10.50;;;;;;;-147.86;100.00;68446.14;105135;1264;60816;-52
2024/01/27 06:54:07;;;;;;;16.70;10.60;;;;;;;-147.86;100.00;68812.64;105088;1266;59985;-60
2024/01/27 06:56:35;;;;;;;17.70;10.80;;;;;;;-147.86;100.00;69047.14;105031;1264;71001;-60
2024/01/27 06:59:03;;;;;;;21.10;11.80;;;;;;;-147.86;100.00;69092.86;105092;1264;62140;-59
2024/01/27 07:01:32;;;;;;;16.70;11.10;;;;;;;-147.86;100.00;69191.39;105089;1264;71350;-59
2024/01/27 07:04:00;;;;;;;20.50;11.60;;;;;;;-147.86;100.00;69231.61;105077;1266;210748;-59
2024/01/27 07:06:28;;;;;;;18.10;11.40;;;;;;;-147.86;100.00;69524.08;105194;1264;59329;-60
2024/01/27 07:08:56;;;;;;;18.30;11.90;;;;;;;-147.86;100.00;69596.61;105242;1266;70953;-61
2024/01/27 07:11:24;;;;;;;19.60;13.00;;;;;;;-147.86;100.00;69662.83;105974;1251;63107;-60
2024/01/27 07:13:52;;;;;;;22.60;14.00;;;;;;;-147.86;100.00;69816.57;106022;1251;72686;-60
2024/01/27 07:16:20;;;;;;;21.70;12.70;;;;;;;-147.86;100.00;69895.80;105954;1251;59660;-55
2024/01/27 07:18:48;;;;;;;20.80;12.90;;;;;;;-147.86;100.00;69557.97;105920;1257;59628;-58
2024/01/27 07:21:17;;;;;;;22.10;13.60;;;;;;;-147.86;100.00;69325.40;105967;1251;71534;-59
2024/01/27 07:23:45;;;;;;;22.80;12.90;;;;;;;-147.86;100.00;69062.11;105994;1251;64385;-57
2024/01/27 07:26:13;;;;;;;21.00;13.30;;;;;;;-147.86;100.00;69348.29;105931;1251;71412;-59
2024/01/27 07:28:40;;;;;;;21.60;14.20;;;;;;;-147.86;100.00;69421.97;105958;1250;60981;-56
2024/01/27 07:31:08;;;;;;;22.20;14.40;;;;;;;-147.86;100.00;69378.63;105971;1254;59950;-58
2024/01/27 07:33:38;;;;;;;21.70;14.10;;;;;;;-147.86;100.00;69509.10;105975;1251;72987;-57
2024/01/27 07:36:06;;;;;;;26.00;15.50;;;;;;;-147.86;100.00;69857.58;105995;1250;62161;-60
2024/01/27 07:38:34;;;;;;;26.90;14.90;;;;;;;-147.86;100.00;69973.47;105937;1251;71349;-59
2024/01/27 07:41:02;;;;;;;22.00;13.90;;;;;;;-147.86;100.00;70225.00;105918;1251;59721;-58
2024/01/27 07:43:31;;;;;;;23.20;13.80;;;;;;;-147.86;100.00;70687.10;105946;1251;59982;-59
2024/01/27 07:45:59;;;;;;;19.20;12.00;;;;;;;-147.86;100.00;70922.89;105987;1254;71906;-60
2024/01/27 07:48:27;;;;;;;19.60;12.00;;;;;;;-147.86;100.00;70881.88;105938;1251;62946;-58
2024/01/27 07:50:56;;;;;;;19.70;11.50;;;;;;;-147.86;100.00;70783.30;105933;1254;70414;-55
2024/01/27 07:53:24;;;;;;;20.20;11.60;;;;;;;-147.86;100.00;70658.70;105909;1252;59746;-57
2024/01/27 07:55:53;;;;;;;18.00;11.30;;;;;;;-147.86;100.00;70723.77;105947;1251;59742;-60
2024/01/27 08:49:28;;;;;;;8.20;5.90;;;;;;;-147.86;100.00;78740.22;102631;1292;601046;-59
2024/01/27 08:51:56;;;;;;;6.00;4.90;;;;;;;-147.86;100.00;70799.48;104870;1266;60397;-59
2024/01/27 08:54:24;;;;;;;8.00;5.60;;;;;;;-147.86;100.00;71564.11;104861;1270;59303;-59
2024/01/27 08:56:51;;;;;;;7.70;5.60;;;;;;;-147.86;100.00;71720.67;105269;1260;71009;-57
2024/01/27 08:59:20;;;;;;;8.70;5.70;;;;;;;-147.86;100.00;72023.20;105305;1263;64535;-56
2024/01/27 09:01:48;;;;;;;7.60;5.60;;;;;;;-147.86;100.00;72175.44;105308;1259;72693;-57
2024/01/27 09:04:15;;;;;;;7.60;5.50;;;;;;;-147.86;100.00;72402.66;105446;1257;194821;-59
2024/01/27 09:06:43;;;;;;;9.90;5.50;;;;;;;-147.86;100.00;72563.98;105629;1261;59310;-59
2024/01/27 09:09:12;;;;;;;5.50;4.20;;;;;;;-147.86;100.00;72492.20;105566;1261;72201;-58
2024/01/27 09:11:40;;;;;;;7.50;4.50;;;;;;;-147.86;100.00;72321.78;105598;1260;63322;-59
2024/01/27 09:14:08;;;;;;;6.50;4.80;;;;;;;-147.86;100.00;72350.19;105549;1259;71406;-60
2024/01/27 09:16:35;;;;;;;11.40;5.40;;;;;;;-147.86;100.00;72498.52;105498;1260;59759;-59
2024/01/27 09:19:03;;;;;;;4.40;4.00;;;;;;;-147.86;100.00;73019.64;105479;1255;59624;-60
2024/01/27 09:21:32;;;;;;;4.60;4.10;;;;;;;-147.86;100.00;73072.52;105210;1256;71734;-60
2024/01/27 09:24:02;;;;;;;5.70;4.50;;;;;;;-147.86;100.00;72718.62;105484;1264;66208;-56
2024/01/27 09:26:30;;;;;;;5.20;4.60;;;;;;;-147.86;100.00;73038.98;105538;1258;71965;-58
2024/01/27 09:28:58;;;;;;;7.70;4.50;;;;;;;-147.86;100.00;72694.56;105537;1257;59691;-59
2024/01/27 09:31:26;;;;;;;5.70;4.40;;;;;;;-147.86;100.00;72961.26;105442;1263;59702;-59
2024/01/27 09:33:54;;;;;;;5.40;4.50;;;;;;;-147.86;100.00;73389.34;105625;1261;72987;-60
2024/01/27 09:36:23;;;;;;;5.70;4.90;;;;;;;-147.86;100.00;73306.89;105590;1260;65093;-61
2024/01/27 09:38:52;;;;;;;6.40;5.50;;;;;;;-147.86;100.00;73265.84;105529;1259;71184;-59
2024/01/27 09:41:20;;;;;;;6.30;5.70;;;;;;;-147.86;100.00;73600.45;105552;1262;59861;-58
2024/01/27 09:43:48;;;;;;;5.90;5.40;;;;;;;-147.86;100.00;74163.17;105581;1257;60127;-60
2024/01/27 09:46:18;;;;;;;5.90;5.30;;;;;;;-147.86;100.00;74267.73;105517;1257;71663;-58
2024/01/27 09:48:46;;;;;;;6.60;5.40;;;;;;;-147.86;100.00;74438.25;105604;1257;64503;-58
2024/01/27 09:51:16;;;;;;;8.90;6.40;;;;;;;-147.86;100.00;74763.05;105518;1257;71644;-59
2024/01/27 09:53:43;;;;;;;7.40;6.60;;;;;;;-147.86;100.00;74735.04;105519;1258;59747;-59
2024/01/27 09:56:18;;;;;;;8.90;7.30;;;;;;;-147.86;100.00;75125.02;105528;1261;59675;-59
2024/01/27 09:58:45;;;;;;;7.80;7.10;;;;;;;-147.86;100.00;75098.58;105492;1259;73020;-61
2024/01/27 10:01:14;;;;;;;8.30;6.10;;;;;;;-147.86;100.00;75495.70;105632;1256;64487;-60
2024/01/27 10:03:43;;;;;;;7.10;5.80;;;;;;;-147.86;100.00;75496.09;105482;1258;71466;-59
2024/01/27 10:06:11;;;;;;;5.90;5.30;;;;;;;-147.86;100.00;75749.16;105530;1262;59759;-59
2024/01/27 10:08:39;;;;;;;5.70;4.80;;;;;;;-147.86;100.00;75472.39;105520;1256;60776;-59
2024/01/27 10:11:08;;;;;;;5.30;4.20;;;;;;;-147.86;100.00;75192.52;105507;1256;71846;-59
2024/01/27 10:13:36;;;;;;;4.50;4.20;;;;;;;-147.86;100.00;75055.55;105513;1261;67192;-58
2024/01/27 10:16:08;;;;;;;4.40;3.60;;;;;;;-147.86;100.00;75391.09;105502;1260;73299;-57
2024/01/27 10:18:36;;;;;;;3.40;3.20;;;;;;;-147.86;100.00;75407.29;105507;1261;60794;-58
2024/01/27 10:21:15;;;;;;;3.70;3.40;;;;;;;-147.86;100.00;76030.66;105509;1262;59705;-59
2024/01/27 10:23:42;;;;;;;3.30;3.10;;;;;;;-147.86;100.00;75759.04;105563;1257;75528;-59
2024/01/27 10:26:10;;;;;;;3.50;3.20;;;;;;;-147.86;100.00;76257.30;105469;1262;63718;-57
2024/01/27 10:28:38;;;;;;;3.40;3.10;;;;;;;-147.86;100.00;76483.54;105589;1262;72787;-58
2024/01/27 10:31:10;;;;;;;4.50;3.20;;;;;;;-147.86;100.00;76110.00;105440;1262;59865;-60
2024/01/27 10:33:39;;;;;;;3.00;2.70;;;;;;;-147.86;100.00;75923.66;105569;1259;59557;-60
2024/01/27 10:36:07;;;;;;;4.00;2.80;;;;;;;-147.86;100.00;75831.25;105529;1262;72906;-58
2024/01/27 10:38:36;;;;;;;3.80;3.50;;;;;;;-147.86;100.00;75504.77;105425;1262;64684;-58
2024/01/27 10:41:07;;;;;;;4.40;3.60;;;;;;;-147.86;100.00;75839.57;105514;1256;73135;-57
2024/01/27 10:43:36;;;;;;;3.60;3.30;;;;;;;-147.86;100.00;75888.13;105500;1259;59747;-58
2024/01/27 10:46:08;;;;;;;4.30;4.00;;;;;;;-147.86;100.00;75445.95;105488;1262;59644;-56
2024/01/27 10:48:39;;;;;;;4.00;3.70;;;;;;;-147.86;100.00;74832.14;105469;1262;72981;-60
2024/01/27 10:51:10;;;;;;;3.40;3.10;;;;;;;-147.86;100.00;74812.80;105504;1256;63126;-54
2024/01/27 10:53:39;;;;;;;3.00;2.80;;;;;;;-147.86;100.00;74794.25;105463;1260;72645;-60
2024/01/27 10:56:09;;;;;;;3.20;2.90;;;;;;;-147.86;100.00;74755.57;105500;1262;60517;-60
2024/01/27 10:58:40;;;;;;;4.50;3.70;;;;;;;-147.86;100.00;74725.97;105504;1257;60070;-58
2024/01/27 11:01:11;;;;;;;3.70;3.20;;;;;;;-147.86;100.00;74340.77;105264;1264;72762;-58
2024/01/27 11:03:41;;;;;;;4.10;3.70;;;;;;;-147.86;100.00;74928.48;105484;1256;63110;-56
2024/01/27 11:06:09;;;;;;;3.10;2.90;;;;;;;-147.86;100.00;75453.08;105568;1261;72636;-59
2024/01/27 11:08:37;;;;;;;4.00;3.70;;;;;;;-147.86;100.00;75527.69;105530;1255;59642;-57
2024/01/27 11:11:11;;;;;;;8.60;7.60;;;;;;;-147.86;100.00;75435.70;105546;1260;59740;-57
2024/01/27 11:13:39;;;;;;;6.30;5.70;;;;;;;-147.86;100.00;75096.61;105472;1261;73472;-56
2024/01/27 11:16:15;;;;;;;16.70;15.10;;;;;;;-147.86;100.00;75307.80;105459;1262;64140;-59
2024/01/27 11:18:43;;;;;;;56.80;35.10;;;;;;;-147.86;100.00;75489.45;105567;1256;75025;-54
2024/01/27 11:21:18;;;;;;;17.40;10.00;;;;;;;-147.86;100.00;75860.89;105471;1260;59593;-59
2024/01/27 11:23:47;;;;;;;77.50;22.00;;;;;;;-147.86;100.00;75434.91;105499;1256;60022;-56
2024/01/27 11:26:22;;;;;;;14.10;6.10;;;;;;;-147.86;100.00;75232.00;105498;1262;72136;-58
2024/01/27 11:28:50;;;;;;;4.70;3.60;;;;;;;-147.86;100.00;74290.27;105493;1262;63120;-60
2024/01/27 11:31:19;;;;;;;7.90;5.30;;;;;;;-147.86;100.00;74377.46;105821;1258;74969;-59
2024/01/27 11:33:51;;;;;;;3.40;3.10;;;;;;;-147.86;100.00;73418.14;105788;1257;61791;-58
2024/01/27 11:36:24;;;;;;;4.20;2.80;;;;;;;-147.86;100.00;72319.45;105751;1259;60143;-60
2024/01/27 11:49:36;;;;;;;3.60;2.90;;;;;;;-147.86;100.00;77363.47;103162;1289;600702;-59
2024/01/27 11:52:05;;;;;;;2.90;2.70;;;;;;;-147.86;100.00;69458.67;104826;1266;60940;-60
2024/01/27 11:54:33;;;;;;;3.30;3.10;;;;;;;-147.86;100.00;69354.20;104915;1267;59956;-58
2024/01/27 11:57:01;;;;;;;5.90;3.40;;;;;;;-147.86;100.00;68783.48;104919;1269;72970;-60
2024/01/27 11:59:30;;;;;;;3.30;3.00;;;;;;;-147.86;100.00;68275.49;104917;1264;63201;-57
2024/01/27 12:01:58;;;;;;;3.30;2.90;;;;;;;-147.86;100.00;67790.83;104909;1266;72744;-59
2024/01/27 12:04:26;;;;;;;3.20;3.00;;;;;;;-147.86;100.00;67539.06;104977;1267;322150;-59
2024/01/27 12:06:53;;;;;;;3.10;2.70;;;;;;;-147.86;100.00;67111.61;105597;1254;59321;-59
2024/01/27 12:09:22;;;;;;;2.70;2.50;;;;;;;-147.86;100.00;66002.80;105653;1254;72160;-60
2024/01/27 12:11:50;;;;;;;3.40;3.10;;;;;;;-147.86;100.00;65642.86;105662;1255;63112;-58
2024/01/27 12:14:17;;;;;;;3.60;3.20;;;;;;;-147.86;100.00;65166.39;105618;1261;72472;-60
2024/01/27 12:16:47;;;;;;;3.20;3.00;;;;;;;-147.86;100.00;64528.17;105619;1258;61785;-60
2024/01/27 12:19:15;;;;;;;4.00;3.70;;;;;;;-147.86;100.00;64164.02;105631;1254;59650;-60
2024/01/27 12:21:50;;;;;;;4.10;3.80;;;;;;;-147.86;100.00;63928.23;105651;1254;72105;-59
2024/01/27 12:24:18;;;;;;;4.20;3.90;;;;;;;-147.86;100.00;63108.79;105629;1254;63223;-59
2024/01/27 12:26:49;;;;;;;4.40;3.70;;;;;;;-147.86;100.00;62668.02;105597;1259;74762;-58
2024/01/27 12:29:20;;;;;;;6.00;5.10;;;;;;;-147.86;100.00;62203.31;105616;1258;62661;-59
2024/01/27 12:31:48;;;;;;;4.80;4.40;;;;;;;-147.86;100.00;61777.23;105660;1254;60030;-59
2024/01/27 12:34:15;;;;;;;6.70;5.50;;;;;;;-147.86;100.00;61253.23;105602;1260;73340;-60
2024/01/27 12:36:47;;;;;;;6.50;5.60;;;;;;;-147.86;100.00;61233.96;105586;1254;63272;-60
2024/01/27 12:39:15;;;;;;;7.30;6.00;;;;;;;-147.86;100.00;60923.99;105590;1257;71390;-60
2024/01/27 12:41:43;;;;;;;8.40;6.50;;;;;;;-147.86;100.00;60013.13;105590;1258;59756;-57
2024/01/27 12:44:10;;;;;;;6.70;5.60;;;;;;;-147.86;100.00;59289.23;105642;1256;59591;-59
2024/01/27 12:46:38;;;;;;;6.90;5.70;;;;;;;-147.86;100.00;58711.71;105591;1256;71797;-61
2024/01/27 12:49:06;;;;;;;6.10;5.50;;;;;;;-147.86;100.00;57922.80;105535;1261;63332;-59
2024/01/27 12:51:34;;;;;;;7.10;5.70;;;;;;;-147.86;100.00;56959.98;105241;1257;74900;-59
2024/01/27 12:54:02;;;;;;;7.30;5.80;;;;;;;-147.86;100.00;56215.82;105537;1257;60755;-58
2024/01/27 12:56:30;;;;;;;9.10;6.60;;;;;;;-147.86;100.00;55749.91;105575;1262;60372;-60
2024/01/27 12:58:58;;;;;;;10.30;6.30;;;;;;;-147.86;100.00;54786.82;105530;1257;71830;-59
2024/01/27 13:01:27;;;;;;;7.10;6.20;;;;;;;-147.86;100.00;54282.21;105587;1258;64349;-60
2024/01/27 13:03:55;;;;;;;9.10;7.60;;;;;;;-147.86;100.00;53990.46;105543;1257;72745;-58
2024/01/27 13:48:35;;;;;;;17.60;10.70;;;;;;;-147.86;100.00;62171.61;103360;1286;601267;-59
2024/01/27 13:51:03;;;;;;;14.00;9.90;;;;;;;-147.86;100.00;51551.30;104945;1270;60819;-57